Flight Track Log - Related Links

Times and Time Zones

All times are in EDT time to prevent confusion due to time zone crossing. See the KAP46 flight status page for this flight to view local times or setup timezone preferences in your user account.

Time Position Orientation Groundspeed Altitude Reporting Facility
EDT Latitude Longitude Course Direction KTS MPH feet Rate Location/Type
Thu 05:20:50 PM 44.7075 -74.7272 161° South 150 173 5,200  Level Boston Center
Thu 05:21:51 PM 44.6767 -74.7056 153° Southeast 138 159 5,800 605 Climbing Boston Center
Thu 05:22:49 PM 44.6478 -74.6928 163° South 123 142 6,400 555 Climbing Boston Center
Thu 05:23:50 PM 44.6189 -74.6800 163° South 123 142 6,900 344 Climbing Boston Center
Thu 05:24:51 PM 44.5733 -74.6578 161° South 135 155 7,100 50 Climbing Boston Center
Thu 05:25:51 PM 44.5300 -74.6358 160° South 153 176 7,000  Descending Boston Center
Thu 05:26:00 PM 44.7907 -74.7731 161° South  Level Estimated
Thu 05:26:48 PM 44.4889 -74.6108 157° South 165 190 7,100  Level Boston Center
Thu 05:27:49 PM 44.4453 -74.5947 165° South 165 190 7,000 -50 Descending Boston Center
Thu 05:28:49 PM 44.4144 -74.5792 160° South 165 190 7,000  Level Boston Center
Thu 05:29:50 PM 44.3647 -74.5569 162° South 159 183 7,000 49 Level Boston Center
Thu 05:30:51 PM 44.3214 -74.5322 158° South 159 183 7,100  Climbing Boston Center
Thu 05:31:49 PM 44.2800 -74.5164 165° South 164 189 7,000 -51 Descending Boston Center
Thu 05:32:49 PM 44.2389 -74.4975 162° South 164 189 7,000 50 Level Boston Center
Thu 05:33:50 PM 44.1975 -74.4758 159° South 164 189 7,100 50 Climbing Boston Center
Thu 05:34:50 PM 44.1542 -74.4569 163° South 164 189 7,100 -50 Level Boston Center
Thu 05:35:51 PM 44.1128 -74.4353 159° South 164 189 7,000 -50 Descending Boston Center
Thu 05:36:49 PM 44.0694 -74.4164 163° South 164 189 7,000  Level Boston Center
Thu 05:37:49 PM 44.0281 -74.3978 162° South 164 189 7,000  Level Boston Center
Thu 05:38:50 PM 43.9847 -74.3733 158° South 164 189 7,000  Level Boston Center
Thu 05:39:51 PM 43.9433 -74.3547 162° South 164 189 7,000  Level Boston Center
Thu 05:40:51 PM 43.8997 -74.3331 160° South 164 189 7,000  Level Boston Center
Thu 05:41:49 PM 43.8606 -74.3175 164° South 164 189 7,000  Level Boston Center
Thu 05:42:50 PM 43.8169 -74.2961 161° South 164 189 7,000 49 Level Boston Center
Thu 05:43:51 PM 43.7758 -74.2775 162° South 164 189 7,100 51 Climbing Boston Center
Thu 05:44:48 PM 43.7344 -74.2561 160° South 164 189 7,100 -51 Level Boston Center
Thu 05:45:49 PM 43.6889 -74.2347 161° South 164 189 7,000 -49 Descending Boston Center
Thu 05:46:50 PM 43.6453 -74.2161 163° South 164 189 7,000 50 Level Boston Center
Thu 05:47:50 PM 43.6039 -74.1978 162° South 164 189 7,100  Climbing Boston Center
Thu 05:48:49 PM 43.5625 -74.1764 159° South 164 189 7,000 -50 Descending Boston Center
Thu 05:49:50 PM 43.5214 -74.1553 160° South 164 189 7,000  Level Boston Center
Thu 05:50:51 PM 43.4797 -74.1397 165° South 164 189 7,000 52 Level Boston Center
Thu 05:51:46 PM 43.4322 -74.1211 164° South 159 183 7,100 51 Climbing Boston Center
Thu 05:52:49 PM 43.3886 -74.0972 158° South 164 189 7,100 -49 Level Boston Center
Thu 05:53:49 PM 43.3453 -74.0761 160° South 164 189 7,000 -50 Descending Boston Center
Thu 05:54:49 PM 43.3039 -74.0578 162° South 164 189 7,000 -157 Level Boston Center
Thu 05:55:44 PM 43.2689 -74.0339 154° Southeast 165 190 6,700 -526 Descending Boston Center
Thu 05:56:43 PM 43.2211 -74.0042 156° South 187 215 6,000 -617 Descending Boston Center
Thu 05:57:31 PM 43.1819 -73.9778 154° Southeast 186 214 5,600 -709 Descending Boston Center
Thu 05:58:33 PM 43.1367 -73.9425 150° Southeast 190 219 4,700 -787 Descending Boston Center
Thu 05:59:33 PM 43.0956 -73.8958 140° Southeast 190 219 4,000 -645 Descending Boston Center
Thu 06:00:34 PM 43.0586 -73.8553 141° Southeast 176 203 3,400 -639 Descending Boston Center
Thu 06:01:35 PM 43.0194 -73.8203 147° Southeast 167 192 2,700 -645 Descending Boston Center
Thu 06:02:35 PM 42.9714 -73.8192 179° South 174 200 2,100 -331 Descending Boston Center
Thu 06:03:42 PM 42.9236 -73.8153 177° South 151 174 2,000  Descending Boston Center
Thu 06:04:43 PM 42.8861 -73.8117 176° South 130 150 2,100  Climbing Boston Center
Thu 06:05:43 PM 42.8528 -73.8108 179° South 114 131 2,000 -250 Descending Boston Center
Thu 06:06:43 PM 42.8278 -73.8103 179° South 88 101 1,600 -446 Descending Boston Center
Thu 06:07:44 PM 42.7986 -73.8097 179° South 98 113 1,100 -496 Descending Boston Center
Thu 06:08:44 PM 42.7694 -73.8089 179° South 108 124 600 25 Descending Boston Center
Thu 06:10:00 PM 42.7491 -73.8020 170° South  Level Estimated
Thu 06:17:00 PM 42.7491 -73.8020 170° South  Level Estimated
Thu 06:18:00 PM 42.7491 -73.8020 170° South  Level Estimated
Thu 06:19:00 PM 42.7491 -73.8020 170° South  Level Estimated
Thu 06:32:06 PM 42.7044 -73.8303 203° Southwest 110 127 1,700  Level Boston Center
Thu 06:33:07 PM 42.6936 -73.8694 249° West 113 130 2,500 787 Climbing Boston Center
Thu 06:34:08 PM 42.6950 -73.9147 272° West 121 139 3,300 776 Climbing Boston Center
Thu 06:35:03 PM 42.7092 -73.9489 299° West 118 136 4,000 626 Climbing Boston Center
Thu 06:36:03 PM 42.7403 -73.9694 334° Northwest 133 153 4,500 446 Climbing Boston Center
Thu 06:37:04 PM 42.7733 -73.9844 342° North 134 154 4,900 541 Climbing Boston Center
Thu 06:38:05 PM 42.8169 -74.0025 343° North 142 163 5,600 645 Climbing Boston Center
Thu 06:39:05 PM 42.8542 -74.0206 340° North 144 166 6,200 517 Climbing Boston Center
Thu 06:40:01 PM 42.8875 -74.0242 355° North 147 169 6,600 610 Climbing Boston Center
Thu 06:41:03 PM 42.9267 -74.0450 339° North 135 155 7,400 706 Climbing Boston Center
Thu 06:42:00 PM 42.9600 -74.0600 342° North 133 153 8,000 632 Climbing Boston Center

Login

Don't have an account? Register now (free) for customized features, flight alerts, and more!